Whiteville, Arkansas
Current Conditions -  °F | °C
As of 12:53 PM on Monday 20 Oct 2014 (Local Time) from KBPK Reporting Station
Broken Clouds Broken Clouds  
Wind Chill: 68°   Ceiling: 4800
Heat Index: 68°   Visibility: 9mi
Dew Point: 55°   Wind: 5mph
Humidity: 63%   Direction: NA
Pressure: 30.04"   Gusts: NA
Location:  36.3299°N, 92.4805°W
Report Text: KBPK 201753Z AUTO VRB04KT 9SM BKN048 BKN070 20/13 A3004 RMK AO2 SLP168 T02000128 10211 20117 58009
Loading
Personal Weather Stations






























Interactive Weather Map
Tropical Storm Tracking
New forecast layout! Learn more

10-Day Weather Forecast

Advertisements
Track Severe Weather on mobile